Time;durP1;ratioP1;P1;durP2;ratioP2;P2;SDS_P1;SDS_P2;PMS_P1;PMS_P2;Temp;Humidity;BMP_temperature;BMP_pressure;BME280_temperature;BME280_humidity;BME280_pressure;Samples;Min_cycle;Max_cycle;Signal;HPM_P1;HPM_P2
2022/04/28 00:01:39;;;;;;;11.95;6.43;;;;;;;;;;4936908;29;20266;-80
2022/04/28 00:04:04;;;;;;;8.77;5.90;;;;;;;;;;4936494;29;20028;-80
2022/04/28 00:06:31;;;;;;;9.50;5.88;;;;;;;;;;4936768;29;20139;-79
2022/04/28 00:08:56;;;;;;;13.10;6.60;;;;;;;;;;4937003;29;20106;-79
2022/04/28 00:11:21;;;;;;;11.95;5.78;;;;;;;;;;4937113;29;20032;-79
2022/04/28 00:13:47;;;;;;;12.07;7.00;;;;;;;;;;4935408;29;20016;-79
2022/04/28 00:16:12;;;;;;;10.95;6.40;;;;;;;;;;4936636;29;20439;-78
2022/04/28 00:18:37;;;;;;;11.95;6.45;;;;;;;;;;4936812;29;20016;-79
2022/04/28 00:21:02;;;;;;;11.57;6.53;;;;;;;;;;4936782;29;20435;-78
2022/04/28 00:23:28;;;;;;;15.25;7.60;;;;;;;;;;4936965;29;20254;-80
2022/04/28 00:25:53;;;;;;;12.00;7.05;;;;;;;;;;4936463;29;20446;-79
2022/04/28 00:28:20;;;;;;;13.30;7.22;;;;;;;;;;4936510;29;20024;-79
2022/04/28 00:30:45;;;;;;;18.55;10.25;;;;;;;;;;4935355;29;20024;-80
2022/04/28 00:33:11;;;;;;;12.55;7.32;;;;;;;;;;4935834;29;20082;-79
2022/04/28 00:35:36;;;;;;;12.55;7.45;;;;;;;;;;4935500;29;20035;-79
2022/04/28 00:38:01;;;;;;;12.25;6.70;;;;;;;;;;4936298;29;20063;-79
2022/04/28 00:40:26;;;;;;;18.10;7.80;;;;;;;;;;4936172;29;20149;-80
2022/04/28 00:42:51;;;;;;;15.00;7.40;;;;;;;;;;4935793;29;20035;-78
2022/04/28 00:45:16;;;;;;;12.95;6.95;;;;;;;;;;4936527;29;20030;-79
2022/04/28 00:50:41;;;;;;;11.88;7.45;;;;;;;;;;4936170;29;20447;-79
2022/04/28 00:53:08;;;;;;;13.88;7.30;;;;;;;;;;4934536;29;20102;-79
2022/04/28 00:55:34;;;;;;;12.25;7.13;;;;;;;;;;4934613;28;20024;-78
2022/04/28 00:57:59;;;;;;;11.27;7.05;;;;;;;;;;4936250;29;20083;-79
2022/04/28 01:00:25;;;;;;;13.75;6.90;;;;;;;;;;4935859;29;20020;-79
2022/04/28 01:02:50;;;;;;;13.80;6.97;;;;;;;;;;4935521;29;20503;-80
2022/04/28 01:05:16;;;;;;;14.20;7.05;;;;;;;;;;4934462;29;20399;-80
2022/04/28 01:07:41;;;;;;;13.05;7.20;;;;;;;;;;4935686;29;20026;-80
2022/04/28 01:10:06;;;;;;;11.02;6.88;;;;;;;;;;4934641;29;20476;-80
2022/04/28 01:12:32;;;;;;;14.93;7.38;;;;;;;;;;4935502;29;20024;-80
2022/04/28 01:14:58;;;;;;;15.10;6.57;;;;;;;;;;4933993;29;20030;-79
2022/04/28 01:17:23;;;;;;;12.73;7.00;;;;;;;;;;4935502;29;20024;-79
2022/04/28 01:19:48;;;;;;;12.23;6.93;;;;;;;;;;4936265;29;20081;-80
2022/04/28 01:22:13;;;;;;;11.20;6.85;;;;;;;;;;4933240;29;20277;-78
2022/04/28 01:24:39;;;;;;;10.00;6.38;;;;;;;;;;4934934;29;20518;-79
2022/04/28 01:27:07;;;;;;;10.70;6.10;;;;;;;;;;4935135;29;20040;-79
2022/04/28 01:29:33;;;;;;;11.77;6.38;;;;;;;;;;4935475;29;20015;-79
2022/04/28 01:31:59;;;;;;;13.90;7.18;;;;;;;;;;4934511;28;20030;-79
2022/04/28 01:34:24;;;;;;;13.60;6.90;;;;;;;;;;4935127;29;20019;-79
2022/04/28 01:36:49;;;;;;;11.98;6.45;;;;;;;;;;4935184;29;20016;-79
2022/04/28 01:39:15;;;;;;;11.50;6.50;;;;;;;;;;4934301;29;20027;-78
2022/04/28 01:41:40;;;;;;;12.40;6.65;;;;;;;;;;4935504;29;20353;-78
2022/04/28 01:44:05;;;;;;;11.02;6.35;;;;;;;;;;4935027;29;20613;-79
2022/04/28 01:46:31;;;;;;;12.07;6.30;;;;;;;;;;4935219;29;20091;-77
2022/04/28 01:48:56;;;;;;;10.27;6.47;;;;;;;;;;4935229;29;20546;-79
2022/04/28 01:56:49;;;;;;;13.25;6.88;;;;;;;;;;4935650;29;20062;-80
2022/04/28 01:59:14;;;;;;;12.73;7.18;;;;;;;;;;4949849;29;20032;-80
2022/04/28 02:01:39;;;;;;;10.93;7.15;;;;;;;;;;4935021;29;20046;-80
2022/04/28 02:04:05;;;;;;;11.15;7.22;;;;;;;;;;4934626;29;20027;-81
2022/04/28 02:06:30;;;;;;;11.15;7.38;;;;;;;;;;4935150;29;20028;-79
2022/04/28 02:08:56;;;;;;;13.07;7.43;;;;;;;;;;4933692;29;20023;-81
2022/04/28 02:11:21;;;;;;;16.13;7.95;;;;;;;;;;4948856;29;20028;-79
2022/04/28 02:13:46;;;;;;;14.65;7.40;;;;;;;;;;4934691;29;20106;-80
2022/04/28 02:16:12;;;;;;;15.27;7.60;;;;;;;;;;4935446;29;20020;-80
2022/04/28 02:18:37;;;;;;;10.95;7.05;;;;;;;;;;4935172;29;20254;-79
2022/04/28 02:21:02;;;;;;;15.10;7.15;;;;;;;;;;4934718;29;20132;-79
2022/04/28 02:23:27;;;;;;;10.88;7.43;;;;;;;;;;4934728;29;20031;-79
2022/04/28 02:25:52;;;;;;;10.93;7.28;;;;;;;;;;4934169;29;20079;-79
2022/04/28 02:28:18;;;;;;;11.30;7.15;;;;;;;;;;4935226;29;20472;-79
2022/04/28 02:30:43;;;;;;;17.45;7.97;;;;;;;;;;4933325;29;20546;-78
2022/04/28 02:33:11;;;;;;;16.55;7.57;;;;;;;;;;4934231;29;20032;-79
2022/04/28 02:35:39;;;;;;;13.35;7.80;;;;;;;;;;4934544;29;20015;-79
2022/04/28 02:38:05;;;;;;;12.15;7.45;;;;;;;;;;4934612;29;20036;-79
2022/04/28 02:40:30;;;;;;;11.77;7.45;;;;;;;;;;4933511;29;20384;-79
2022/04/28 02:42:55;;;;;;;15.75;7.38;;;;;;;;;;4934068;29;20440;-78
2022/04/28 02:45:21;;;;;;;11.68;7.35;;;;;;;;;;4934360;29;20038;-79
2022/04/28 02:47:46;;;;;;;14.88;6.82;;;;;;;;;;4934386;29;20032;-80
2022/04/28 02:50:11;;;;;;;10.93;6.78;;;;;;;;;;4933010;29;20083;-78
2022/04/28 02:52:40;;;;;;;13.68;7.53;;;;;;;;;;4932916;29;20024;-79
2022/04/28 02:55:05;;;;;;;13.82;6.97;;;;;;;;;;4933134;29;20118;-76
2022/04/28 02:57:31;;;;;;;14.35;6.63;;;;;;;;;;4935437;29;20066;-78
2022/04/28 02:59:57;;;;;;;16.48;7.22;;;;;;;;;;4937224;29;20408;-78
2022/04/28 03:02:23;;;;;;;12.98;7.10;;;;;;;;;;4936526;29;20603;-79
2022/04/28 03:04:48;;;;;;;17.73;7.63;;;;;;;;;;4937672;29;20106;-78
2022/04/28 03:12:41;;;;;;;14.15;6.97;;;;;;;;;;4937638;29;20463;-78
2022/04/28 03:15:07;;;;;;;15.30;6.65;;;;;;;;;;4937953;29;20019;-79
2022/04/28 03:17:33;;;;;;;12.90;6.82;;;;;;;;;;4936646;29;20078;-78
2022/04/28 03:19:58;;;;;;;11.48;6.53;;;;;;;;;;4937814;29;20031;-81
2022/04/28 03:22:23;;;;;;;10.65;7.38;;;;;;;;;;4937979;29;20155;-79
2022/04/28 03:24:49;;;;;;;11.85;7.00;;;;;;;;;;4937045;29;20024;-77
2022/04/28 03:27:14;;;;;;;15.90;7.00;;;;;;;;;;4937326;29;20026;-78
2022/04/28 03:29:39;;;;;;;15.55;7.60;;;;;;;;;;4937641;29;20020;-78
2022/04/28 03:32:08;;;;;;;14.65;7.75;;;;;;;;;;4936468;29;20152;-79
2022/04/28 03:34:33;;;;;;;;;;;;;;;;;;4936365;29;20095;-78
2022/04/28 03:36:58;;;;;;;12.60;6.95;;;;;;;;;;4937419;29;19907;-78
2022/04/28 03:39:23;;;;;;;12.02;7.57;;;;;;;;;;4937416;29;20475;-78
2022/04/28 03:41:49;;;;;;;10.88;7.13;;;;;;;;;;4937404;29;20015;-78
2022/04/28 03:44:14;;;;;;;10.52;6.55;;;;;;;;;;4937204;29;20437;-79
2022/04/28 03:46:39;;;;;;;13.27;7.30;;;;;;;;;;4936012;29;20454;-79
2022/04/28 03:49:04;;;;;;;13.40;7.18;;;;;;;;;;4935757;29;20028;-79
2022/04/28 03:51:29;;;;;;;12.00;7.03;;;;;;;;;;4936073;29;20027;-77
2022/04/28 03:54:00;;;;;;;14.57;6.97;;;;;;;;;;4936938;29;20027;-79
2022/04/28 03:56:25;;;;;;;13.32;7.43;;;;;;;;;;4935884;29;20027;-78
2022/04/28 03:58:50;;;;;;;16.63;7.53;;;;;;;;;;4936842;29;20019;-79
2022/04/28 04:01:15;;;;;;;14.38;7.53;;;;;;;;;;4935591;28;20475;-79
2022/04/28 04:03:41;;;;;;;14.65;7.25;;;;;;;;;;4936405;29;20093;-79
2022/04/28 04:06:06;;;;;;;11.77;6.63;;;;;;;;;;4937521;29;20476;-79
2022/04/28 04:08:31;;;;;;;18.70;7.45;;;;;;;;;;4935604;29;20064;-79
2022/04/28 04:10:56;;;;;;;12.25;6.80;;;;;;;;;;4935819;29;20023;-78
2022/04/28 04:13:24;;;;;;;14.07;7.38;;;;;;;;;;4936534;29;20019;-79
2022/04/28 04:15:50;;;;;;;11.83;7.03;;;;;;;;;;4935654;29;20102;-78
2022/04/28 04:18:15;;;;;;;18.13;9.70;;;;;;;;;;4936072;29;20321;-77
2022/04/28 04:20:41;;;;;;;14.30;7.82;;;;;;;;;;4935807;28;20086;-78
2022/04/28 04:23:06;;;;;;;13.23;6.88;;;;;;;;;;4935568;28;20027;-78
2022/04/28 04:25:34;;;;;;;13.70;7.18;;;;;;;;;;4935528;29;20023;-78
2022/04/28 04:27:59;;;;;;;13.67;6.37;;;;;;;;;;4937222;29;20016;-78
2022/04/28 04:33:08;;;;;;;14.90;7.80;;;;;;;;;;4936143;29;20031;-78
2022/04/28 04:35:33;;;;;;;12.68;7.47;;;;;;;;;;4934957;29;20020;-78
2022/04/28 04:37:59;;;;;;;13.10;7.70;;;;;;;;;;4934914;29;20078;-79
2022/04/28 04:40:24;;;;;;;15.27;6.63;;;;;;;;;;4936453;29;20027;-79
2022/04/28 04:42:49;;;;;;;13.63;6.82;;;;;;;;;;4935956;29;20027;-77
2022/04/28 04:45:14;;;;;;;14.73;7.43;;;;;;;;;;4934700;29;20028;-79
2022/04/28 04:47:39;;;;;;;14.43;6.55;;;;;;;;;;4936110;29;20020;-78
2022/04/28 04:50:06;;;;;;;14.55;6.70;;;;;;;;;;4936478;29;20030;-79
2022/04/28 04:52:31;;;;;;;20.40;7.32;;;;;;;;;;4935935;29;20471;-79
2022/04/28 04:54:56;;;;;;;14.30;6.65;;;;;;;;;;4936053;29;20022;-79
2022/04/28 04:57:22;;;;;;;13.13;7.15;;;;;;;;;;4935709;29;20099;-80
2022/04/28 04:59:47;;;;;;;14.73;6.80;;;;;;;;;;4934600;29;20019;-79
2022/04/28 05:02:12;;;;;;;13.73;7.03;;;;;;;;;;4935696;29;20051;-79
2022/04/28 05:04:37;;;;;;;15.85;7.03;;;;;;;;;;4935461;29;20038;-76
2022/04/28 05:07:03;;;;;;;17.55;6.78;;;;;;;;;;4936073;29;20038;-76
2022/04/28 05:09:28;;;;;;;16.17;7.63;;;;;;;;;;4934753;29;20404;-80
2022/04/28 05:11:53;;;;;;;13.73;6.20;;;;;;;;;;4935960;29;20176;-79
2022/04/28 05:14:18;;;;;;;11.73;6.50;;;;;;;;;;4936011;29;20334;-79
2022/04/28 05:16:43;;;;;;;16.33;9.10;;;;;;;;;;4934381;29;20012;-79
2022/04/28 05:19:09;;;;;;;14.88;7.40;;;;;;;;;;4935447;29;20099;-78
2022/04/28 05:21:34;;;;;;;12.55;6.88;;;;;;;;;;4936079;29;20051;-78
2022/04/28 05:23:59;;;;;;;19.73;7.75;;;;;;;;;;4935979;29;20480;-78
2022/04/28 05:26:25;;;;;;;16.13;6.60;;;;;;;;;;4935052;29;20559;-78
2022/04/28 05:28:50;;;;;;;13.23;6.85;;;;;;;;;;4934829;29;20138;-78
2022/04/28 05:31:15;;;;;;;15.32;6.97;;;;;;;;;;4935652;29;20039;-79
2022/04/28 05:33:42;;;;;;;13.43;6.70;;;;;;;;;;4936088;29;20491;-79
2022/04/28 05:36:09;;;;;;;14.02;7.25;;;;;;;;;;4939209;29;20024;-79
2022/04/28 05:38:35;;;;;;;16.23;6.75;;;;;;;;;;4939232;29;20399;-78
2022/04/28 05:41:00;;;;;;;16.50;7.10;;;;;;;;;;4938634;29;20137;-78
2022/04/28 05:46:09;;;;;;;19.27;7.32;;;;;;;;;;4939602;29;20026;-79
2022/04/28 05:48:34;;;;;;;17.63;7.38;;;;;;;;;;4933378;29;20103;-77
2022/04/28 05:51:00;;;;;;;10.45;6.95;;;;;;;;;;4935018;29;20016;-78
2022/04/28 05:53:25;;;;;;;13.65;7.18;;;;;;;;;;4932980;29;20019;-78
2022/04/28 05:55:50;;;;;;;12.57;7.18;;;;;;;;;;4933364;29;20499;-77
2022/04/28 05:58:16;;;;;;;17.80;7.80;;;;;;;;;;4933638;29;20019;-80
2022/04/28 06:00:42;;;;;;;13.38;7.63;;;;;;;;;;4936221;29;20023;-79
2022/04/28 06:03:07;;;;;;;11.98;6.55;;;;;;;;;;4936025;29;20031;-79
2022/04/28 06:05:32;;;;;;;13.45;6.53;;;;;;;;;;4935720;29;20040;-78
2022/04/28 06:07:57;;;;;;;12.20;6.78;;;;;;;;;;4934801;29;20035;-78
2022/04/28 06:10:23;;;;;;;12.43;7.15;;;;;;;;;;4934308;29;20079;-79
2022/04/28 06:12:48;;;;;;;16.40;7.70;;;;;;;;;;4934555;29;20059;-79
2022/04/28 06:15:16;;;;;;;17.45;7.00;;;;;;;;;;4934515;29;20297;-78
2022/04/28 06:17:41;;;;;;;12.40;7.47;;;;;;;;;;4934314;29;20008;-77
2022/04/28 06:20:07;;;;;;;15.82;7.28;;;;;;;;;;4931086;29;20690;-74
2022/04/28 06:22:32;;;;;;;13.02;6.40;;;;;;;;;;4934028;29;20035;-77
2022/04/28 06:24:58;;;;;;;13.90;6.88;;;;;;;;;;4933929;29;20495;-77
2022/04/28 06:27:24;;;;;;;15.32;6.22;;;;;;;;;;4932573;29;20106;-75
2022/04/28 06:29:49;;;;;;;11.60;6.45;;;;;;;;;;4932593;28;20468;-78
2022/04/28 06:32:16;;;;;;;12.75;6.95;;;;;;;;;;4933815;29;20020;-78
2022/04/28 06:34:41;;;;;;;14.23;7.10;;;;;;;;;;4937851;29;20026;-77
2022/04/28 06:37:07;;;;;;;13.18;7.18;;;;;;;;;;4937416;29;20012;-78
2022/04/28 06:39:32;;;;;;;19.48;6.85;;;;;;;;;;4937955;29;20488;-78
2022/04/28 06:41:57;;;;;;;10.98;6.22;;;;;;;;;;4936683;28;20355;-78
2022/04/28 06:44:22;;;;;;;15.57;7.65;;;;;;;;;;4937829;29;20075;-78
2022/04/28 06:46:48;;;;;;;12.63;6.53;;;;;;;;;;4937728;29;20020;-78
2022/04/28 06:49:13;;;;;;;13.60;6.85;;;;;;;;;;4937657;29;20741;-78
2022/04/28 06:51:38;;;;;;;17.95;7.82;;;;;;;;;;4938184;29;20468;-77
2022/04/28 06:54:03;;;;;;;13.20;7.18;;;;;;;;;;4935145;29;20103;-77
2022/04/28 06:56:29;;;;;;;13.07;6.47;;;;;;;;;;4937827;29;20356;-78
2022/04/28 06:58:54;;;;;;;13.30;6.55;;;;;;;;;;4936503;29;20034;-77
2022/04/28 07:01:19;;;;;;;13.50;6.25;;;;;;;;;;4936297;29;20026;-79
2022/04/28 07:03:44;;;;;;;13.52;6.50;;;;;;;;;;4938099;29;20098;-78
2022/04/28 07:06:10;;;;;;;10.98;5.88;;;;;;;;;;4937094;29;20034;-77
2022/04/28 07:08:35;;;;;;;11.02;6.30;;;;;;;;;;4937374;29;20349;-76
2022/04/28 07:11:00;;;;;;;12.32;7.07;;;;;;;;;;4936573;29;20019;-76
2022/04/28 07:13:25;;;;;;;10.30;6.45;;;;;;;;;;4935664;29;20368;-78
2022/04/28 07:15:51;;;;;;;11.85;6.13;;;;;;;;;;4937354;29;20020;-78
2022/04/28 07:18:16;;;;;;;13.80;6.40;;;;;;;;;;4937351;29;20103;-78
2022/04/28 07:20:41;;;;;;;17.58;7.35;;;;;;;;;;4937346;29;20102;-78
2022/04/28 07:23:07;;;;;;;12.50;6.15;;;;;;;;;;4937308;29;20451;-77
2022/04/28 07:25:32;;;;;;;12.40;5.65;;;;;;;;;;4936973;29;20036;-78
2022/04/28 07:27:57;;;;;;;12.07;5.95;;;;;;;;;;4936093;29;20432;-77
2022/04/28 07:30:22;;;;;;;12.52;6.15;;;;;;;;;;4936947;29;20019;-76
2022/04/28 07:32:48;;;;;;;14.68;7.05;;;;;;;;;;4936537;29;20067;-77
2022/04/28 07:35:14;;;;;;;14.20;6.65;;;;;;;;;;4933162;29;20502;-77
2022/04/28 07:37:39;;;;;;;12.77;6.60;;;;;;;;;;4932410;29;20066;-78
2022/04/28 07:40:05;;;;;;;18.10;6.93;;;;;;;;;;4934829;29;20454;-76
2022/04/28 07:42:30;;;;;;;14.05;6.22;;;;;;;;;;4917737;29;20473;-77
2022/04/28 07:44:56;;;;;;;13.43;6.28;;;;;;;;;;4917511;29;20039;-76
2022/04/28 07:47:21;;;;;;;14.43;6.88;;;;;;;;;;4917663;29;20571;-77
2022/04/28 07:49:46;;;;;;;14.88;7.28;;;;;;;;;;4917799;29;20035;-78
2022/04/28 07:52:12;;;;;;;10.05;6.05;;;;;;;;;;4917584;29;20031;-77
2022/04/28 07:54:37;;;;;;;12.55;6.35;;;;;;;;;;4917359;29;20118;-77
2022/04/28 07:57:02;;;;;;;8.88;5.70;;;;;;;;;;4917771;29;20020;-77
2022/04/28 07:59:28;;;;;;;13.65;6.70;;;;;;;;;;4930436;28;20027;-77
2022/04/28 08:01:53;;;;;;;9.98;5.85;;;;;;;;;;4936568;29;20024;-78
2022/04/28 08:04:18;;;;;;;13.25;6.50;;;;;;;;;;4936530;29;20024;-77
2022/04/28 08:06:43;;;;;;;15.80;6.53;;;;;;;;;;4936374;29;20074;-77
2022/04/28 08:09:09;;;;;;;13.73;6.68;;;;;;;;;;4936451;29;20038;-77
2022/04/28 08:11:34;;;;;;;16.85;6.70;;;;;;;;;;4936677;29;20095;-77
2022/04/28 08:13:59;;;;;;;11.82;6.32;;;;;;;;;;4936038;29;20024;-76
2022/04/28 08:16:24;;;;;;;11.57;5.78;;;;;;;;;;4936120;29;20015;-77
2022/04/28 08:18:50;;;;;;;13.02;5.63;;;;;;;;;;4936478;29;20424;-77
2022/04/28 08:21:15;;;;;;;12.85;6.38;;;;;;;;;;4936191;29;20028;-76
2022/04/28 08:23:40;;;;;;;17.00;5.82;;;;;;;;;;4936001;29;20065;-77
2022/04/28 08:26:05;;;;;;;11.15;6.70;;;;;;;;;;4935963;29;20034;-77
2022/04/28 08:28:31;;;;;;;11.90;7.32;;;;;;;;;;4936258;29;20102;-77
2022/04/28 08:30:56;;;;;;;12.02;6.35;;;;;;;;;;4934769;29;20356;-76
2022/04/28 08:33:21;;;;;;;14.25;7.03;;;;;;;;;;4934671;29;20380;-76
2022/04/28 08:35:46;;;;;;;12.23;7.30;;;;;;;;;;4934905;29;20019;-78
2022/04/28 08:38:12;;;;;;;11.07;7.15;;;;;;;;;;4934995;29;20391;-75
2022/04/28 08:40:37;;;;;;;11.73;5.70;;;;;;;;;;4934656;29;20019;-78
2022/04/28 08:43:03;;;;;;;13.15;6.78;;;;;;;;;;4934350;29;20099;-77
2022/04/28 08:45:29;;;;;;;11.32;6.25;;;;;;;;;;4936077;29;20024;-76
2022/04/28 08:47:56;;;;;;;19.50;8.43;;;;;;;;;;4935813;29;20479;-77
2022/04/28 08:50:22;;;;;;;14.00;6.85;;;;;;;;;;4936087;29;20072;-77
2022/04/28 08:52:48;;;;;;;11.43;7.05;;;;;;;;;;4935059;29;20371;-77
2022/04/28 08:55:15;;;;;;;15.13;7.15;;;;;;;;;;4934607;29;20024;-77
2022/04/28 08:57:40;;;;;;;14.90;8.52;;;;;;;;;;4935540;29;20091;-77
2022/04/28 09:00:06;;;;;;;13.13;6.57;;;;;;;;;;4935484;29;20072;-78
2022/04/28 09:02:32;;;;;;;15.05;7.05;;;;;;;;;;4935509;29;20503;-75
2022/04/28 09:05:01;;;;;;;12.80;6.20;;;;;;;;;;4929648;29;20066;-76
2022/04/28 09:07:33;;;;;;;11.88;7.00;;;;;;;;;;4925938;29;20028;-78
2022/04/28 09:09:58;;;;;;;9.50;6.18;;;;;;;;;;4935034;23;20059;-83
2022/04/28 09:12:24;;;;;;;13.10;5.93;;;;;;;;;;4915088;29;20472;-82
2022/04/28 09:14:50;;;;;;;13.60;6.97;;;;;;;;;;4931533;29;20039;-84
2022/04/28 09:17:16;;;;;;;12.55;7.35;;;;;;;;;;4931195;29;20031;-84
2022/04/28 09:19:41;;;;;;;11.30;6.53;;;;;;;;;;4931345;29;20024;-82
2022/04/28 09:22:09;;;;;;;14.05;7.32;;;;;;;;;;4915665;29;20123;-80
2022/04/28 09:24:35;;;;;;;13.63;6.95;;;;;;;;;;4916370;29;20186;-82
2022/04/28 09:27:00;;;;;;;19.63;8.40;;;;;;;;;;4931061;29;20496;-81
2022/04/28 09:29:29;;;;;;;10.57;7.03;;;;;;;;;;4915972;29;20028;-81
2022/04/28 09:31:54;;;;;;;11.65;7.07;;;;;;;;;;4915808;29;20016;-81
2022/04/28 09:34:20;;;;;;;14.93;8.07;;;;;;;;;;4914889;29;20552;-81
2022/04/28 09:36:46;;;;;;;11.32;6.32;;;;;;;;;;4915920;29;20035;-81
2022/04/28 09:42:29;;;;;;;13.18;7.10;;;;;;;;;;4913363;29;20048;-80
2022/04/28 09:44:49;;;;;;;13.73;7.38;;;;;;;;;;4897103;29;20132;-80
2022/04/28 09:47:14;;;;;;;13.85;8.57;;;;;;;;;;4897470;29;20056;-80
2022/04/28 09:49:41;;;;;;;15.90;9.13;;;;;;;;;;4897883;29;20025;-83
2022/04/28 09:52:08;;;;;;;9.52;6.95;;;;;;;;;;4897696;29;20405;-84
2022/04/28 09:54:36;;;;;;;11.13;6.43;;;;;;;;;;4898043;29;20028;-82
2022/04/28 09:57:02;;;;;;;13.57;7.68;;;;;;;;;;4910602;29;20027;-77
2022/04/28 09:59:28;;;;;;;13.00;7.60;;;;;;;;;;4908732;29;20028;-76
2022/04/28 10:01:53;;;;;;;12.60;7.43;;;;;;;;;;4922628;29;20024;-76
2022/04/28 10:04:18;;;;;;;17.17;8.05;;;;;;;;;;4914720;29;20079;-77
2022/04/28 10:06:44;;;;;;;17.35;8.25;;;;;;;;;;4914073;29;20024;-78
2022/04/28 10:09:11;;;;;;;12.63;7.65;;;;;;;;;;4914889;29;20091;-78
2022/04/28 10:11:37;;;;;;;15.13;8.13;;;;;;;;;;4915301;29;20043;-77
2022/04/28 10:14:03;;;;;;;12.15;7.25;;;;;;;;;;4911790;29;20414;-77
2022/04/28 10:16:28;;;;;;;11.23;7.57;;;;;;;;;;4918262;29;20021;-78
2022/04/28 10:18:58;;;;;;;17.83;8.98;;;;;;;;;;4919429;29;20044;-77
2022/04/28 10:21:28;;;;;;;14.07;7.55;;;;;;;;;;4923377;29;20028;-78
2022/04/28 10:32:23;;;;;;;13.68;7.97;;;;;;;;;;4921871;29;20035;-78
2022/04/28 10:35:02;;;;;;;16.73;8.30;;;;;;;;;;4926379;29;20027;-78
2022/04/28 10:37:32;;;;;;;16.25;7.53;;;;;;;;;;4923163;29;20024;-78
2022/04/28 10:39:57;;;;;;;12.02;6.90;;;;;;;;;;4916889;29;20048;-80
2022/04/28 10:42:31;;;;;;;14.65;7.65;;;;;;;;;;4916609;29;20031;-79
2022/04/28 10:44:57;;;;;;;13.68;8.00;;;;;;;;;;4918698;29;20084;-77
2022/04/28 10:47:30;;;;;;;19.85;8.88;;;;;;;;;;4915586;29;20020;-78
2022/04/28 10:49:55;;;;;;;11.88;7.60;;;;;;;;;;4914215;29;20027;-78
2022/04/28 10:52:22;;;;;;;12.18;7.38;;;;;;;;;;4915352;29;20384;-77
2022/04/28 10:54:50;;;;;;;12.43;7.55;;;;;;;;;;4914980;29;20027;-78
2022/04/28 10:57:15;;;;;;;12.45;6.18;;;;;;;;;;4907005;29;20176;-78
2022/04/28 10:59:43;;;;;;;15.13;7.23;;;;;;;;;;4914794;29;20059;-79
2022/04/28 11:02:15;;;;;;;16.13;7.97;;;;;;;;;;4914104;29;20035;-78
2022/04/28 11:04:41;;;;;;;14.90;8.23;;;;;;;;;;4914677;29;20070;-79
2022/04/28 11:07:11;;;;;;;16.52;8.80;;;;;;;;;;4915002;29;20445;-77
2022/04/28 11:09:40;;;;;;;14.18;7.45;;;;;;;;;;4914774;29;20062;-78
2022/04/28 11:12:09;;;;;;;11.48;7.03;;;;;;;;;;4914150;29;20040;-78
2022/04/28 11:14:59;;;;;;;9.48;6.32;;;;;;;;;;4914274;29;20020;-78
2022/04/28 11:17:25;;;;;;;13.68;6.03;;;;;;;;;;4915081;29;20120;-78
2022/04/28 11:19:51;;;;;;;15.15;7.65;;;;;;;;;;4918017;29;20096;-79
2022/04/28 11:22:16;;;;;;;10.43;6.50;;;;;;;;;;4916986;29;20047;-78
2022/04/28 11:24:42;;;;;;;10.40;7.13;;;;;;;;;;4918401;29;20388;-78
2022/04/28 11:27:07;;;;;;;9.23;6.47;;;;;;;;;;4918577;29;20271;-78
2022/04/28 11:29:33;;;;;;;12.05;7.43;;;;;;;;;;4909754;29;20033;-77
2022/04/28 11:32:01;;;;;;;13.60;7.13;;;;;;;;;;4918461;29;20032;-76
2022/04/28 11:34:30;;;;;;;14.27;7.35;;;;;;;;;;4916989;29;20031;-77
2022/04/28 11:36:55;;;;;;;15.25;7.65;;;;;;;;;;4918366;29;20035;-78
2022/04/28 11:39:22;;;;;;;10.50;7.07;;;;;;;;;;4918090;29;20103;-77
2022/04/28 11:41:52;;;;;;;11.60;6.30;;;;;;;;;;4916686;29;20488;-78
2022/04/28 11:44:17;;;;;;;14.55;7.63;;;;;;;;;;4917671;29;20028;-78
2022/04/28 11:46:42;;;;;;;9.40;6.78;;;;;;;;;;4914153;29;20112;-78
2022/04/28 11:49:07;;;;;;;13.23;6.55;;;;;;;;;;4912981;29;20108;-79
2022/04/28 11:51:33;;;;;;;14.52;6.25;;;;;;;;;;4918002;29;20036;-78
2022/04/28 11:53:59;;;;;;;12.05;6.18;;;;;;;;;;4917498;29;20016;-77
2022/04/28 11:56:31;;;;;;;9.82;5.85;;;;;;;;;;4916667;29;20043;-79
2022/04/28 11:58:58;;;;;;;8.70;5.20;;;;;;;;;;4917751;29;20020;-77
2022/04/28 12:01:25;;;;;;;13.73;7.53;;;;;;;;;;4917847;29;20518;-77
2022/04/28 12:03:54;;;;;;;11.80;7.05;;;;;;;;;;4916476;29;20024;-76
2022/04/28 12:06:20;;;;;;;10.70;5.53;;;;;;;;;;4909818;29;20056;-78
2022/04/28 12:14:22;;;;;;;12.07;6.65;;;;;;;;;;4931865;29;20058;-78
2022/04/28 12:14:34;;;;;;;7.10;4.43;;;;;;;;;;4916966;29;20087;-76
2022/04/28 12:19:59;;;;;;;9.70;5.22;;;;;;;;;;4912986;29;20035;-76
2022/04/28 12:22:29;;;;;;;10.02;5.82;;;;;;;;;;4914448;29;20020;-78
2022/04/28 12:24:55;;;;;;;14.55;6.82;;;;;;;;;;4915831;29;20024;-77
2022/04/28 12:27:20;;;;;;;9.15;5.78;;;;;;;;;;4917265;29;20079;-76
2022/04/28 12:29:48;;;;;;;10.57;6.50;;;;;;;;;;4917228;29;20456;-78
2022/04/28 12:32:14;;;;;;;10.60;6.60;;;;;;;;;;4917600;29;20020;-76
2022/04/28 12:34:39;;;;;;;12.82;6.18;;;;;;;;;;4917023;29;20031;-78
2022/04/28 12:37:04;;;;;;;11.05;6.03;;;;;;;;;;4908418;29;20396;-77
2022/04/28 12:39:31;;;;;;;9.47;5.37;;;;;;;;;;4915079;29;20361;-78
2022/04/28 12:41:56;;;;;;;9.70;6.00;;;;;;;;;;4915383;29;20032;-78
2022/04/28 12:44:23;;;;;;;11.38;5.43;;;;;;;;;;4916354;29;20107;-77
2022/04/28 12:46:49;;;;;;;8.98;5.80;;;;;;;;;;4915275;29;20042;-80
2022/04/28 12:49:19;;;;;;;10.20;5.57;;;;;;;;;;4915432;29;20028;-79
2022/04/28 12:51:45;;;;;;;10.55;6.65;;;;;;;;;;4915574;29;20136;-78
2022/04/28 12:54:20;;;;;;;8.88;4.53;;;;;;;;;;4908710;29;20508;-77
2022/04/28 12:56:54;;;;;;;10.82;5.05;;;;;;;;;;4909226;29;20511;-80
2022/04/28 12:59:27;;;;;;;7.82;5.28;;;;;;;;;;4916344;29;20472;-78
2022/04/28 13:01:52;;;;;;;7.63;5.18;;;;;;;;;;4931163;29;20120;-78
2022/04/28 13:04:22;;;;;;;9.27;4.43;;;;;;;;;;4914325;29;20114;-79
2022/04/28 13:06:48;;;;;;;10.25;5.25;;;;;;;;;;4916703;29;20671;-78
2022/04/28 13:09:15;;;;;;;8.95;5.45;;;;;;;;;;4916366;29;20032;-77
2022/04/28 13:11:41;;;;;;;7.22;4.13;;;;;;;;;;4911789;29;20498;-78
2022/04/28 13:14:11;;;;;;;7.13;4.15;;;;;;;;;;4911271;29;20024;-79
2022/04/28 13:16:37;;;;;;;10.50;5.75;;;;;;;;;;4916448;29;20282;-76
2022/04/28 13:19:04;;;;;;;9.32;5.75;;;;;;;;;;4921803;29;20035;-78
2022/04/28 13:21:29;;;;;;;11.60;6.25;;;;;;;;;;4927860;29;20024;-76
2022/04/28 13:23:55;;;;;;;10.10;4.43;;;;;;;;;;4926343;29;20027;-77
2022/04/28 13:26:21;;;;;;;14.32;4.88;;;;;;;;;;4920002;29;20598;-79
2022/04/28 13:28:47;;;;;;;10.38;5.15;;;;;;;;;;4910615;29;20455;-79
2022/04/28 13:31:12;;;;;;;11.13;5.70;;;;;;;;;;4920659;29;20028;-77
2022/04/28 13:33:38;;;;;;;8.10;4.28;;;;;;;;;;4919286;29;20334;-78
2022/04/28 13:36:04;;;;;;;8.77;4.63;;;;;;;;;;4922120;29;20028;-78
2022/04/28 13:38:29;;;;;;;12.80;6.03;;;;;;;;;;4923932;29;20079;-78
2022/04/28 13:40:55;;;;;;;8.32;4.28;;;;;;;;;;4917549;29;20467;-77
2022/04/28 13:43:20;;;;;;;9.20;5.57;;;;;;;;;;4916232;29;20078;-80
2022/04/28 13:45:45;;;;;;;9.80;5.75;;;;;;;;;;4907528;29;20238;-78
2022/04/28 13:48:11;;;;;;;15.18;6.65;;;;;;;;;;4915178;29;20032;-77
2022/04/28 13:50:39;;;;;;;13.93;5.43;;;;;;;;;;4915695;29;20027;-80
2022/04/28 13:53:04;;;;;;;;;;;;;;;;;;4918572;29;20031;-78
2022/04/28 13:55:29;;;;;;;9.97;5.00;;;;;;;;;;4932221;29;20243;-78
2022/04/28 13:57:55;;;;;;;7.78;4.10;;;;;;;;;;4916675;29;20032;-79
2022/04/28 14:00:21;;;;;;;8.43;4.78;;;;;;;;;;4914215;29;20063;-80
2022/04/28 14:02:47;;;;;;;8.07;4.53;;;;;;;;;;4908391;29;20451;-79
2022/04/28 14:05:12;;;;;;;8.07;5.18;;;;;;;;;;4927967;29;20020;-78
2022/04/28 14:07:38;;;;;;;9.77;4.88;;;;;;;;;;4921227;29;20020;-78
2022/04/28 14:10:04;;;;;;;10.15;5.75;;;;;;;;;;4921502;29;20349;-79
2022/04/28 14:12:29;;;;;;;8.18;4.07;;;;;;;;;;4918947;29;20039;-80
2022/04/28 14:14:55;;;;;;;8.88;4.43;;;;;;;;;;4917451;29;20444;-79
2022/04/28 14:17:20;;;;;;;15.68;6.95;;;;;;;;;;4919149;29;20020;-79
2022/04/28 14:19:45;;;;;;;12.07;5.00;;;;;;;;;;4916361;29;20115;-78
2022/04/28 14:22:17;;;;;;;8.30;4.22;;;;;;;;;;4918691;29;20291;-79
2022/04/28 14:24:42;;;;;;;8.70;5.20;;;;;;;;;;4918026;29;20032;-78
2022/04/28 14:27:07;;;;;;;6.87;4.20;;;;;;;;;;4919867;29;20111;-77
2022/04/28 14:29:32;;;;;;;7.83;4.73;;;;;;;;;;4919921;29;20311;-78
2022/04/28 14:31:59;;;;;;;8.47;3.57;;;;;;;;;;4915654;29;20270;-78
2022/04/28 14:34:24;;;;;;;10.77;5.53;;;;;;;;;;4913953;29;20313;-78
2022/04/28 14:36:50;;;;;;;10.40;5.23;;;;;;;;;;4915005;29;20506;-78
2022/04/28 14:39:15;;;;;;;7.95;4.95;;;;;;;;;;4915444;29;20261;-78
2022/04/28 14:41:41;;;;;;;11.95;4.75;;;;;;;;;;4915378;29;20024;-79
2022/04/28 14:44:06;;;;;;;9.82;4.75;;;;;;;;;;4914711;29;20055;-78
2022/04/28 14:46:35;;;;;;;13.07;5.85;;;;;;;;;;4915386;29;20024;-79
2022/04/28 14:54:35;;;;;;;14.20;4.68;;;;;;;;;;4915501;29;20055;-78
2022/04/28 14:57:01;;;;;;;11.98;5.35;;;;;;;;;;4920307;29;20477;-78
2022/04/28 14:59:26;;;;;;;10.80;6.50;;;;;;;;;;4920657;29;20067;-77
2022/04/28 15:01:52;;;;;;;10.93;5.47;;;;;;;;;;4921816;29;20058;-79
2022/04/28 15:04:17;;;;;;;10.63;5.28;;;;;;;;;;4919558;29;20103;-78
2022/04/28 15:06:42;;;;;;;11.10;5.70;;;;;;;;;;4920535;29;20027;-78
2022/04/28 15:09:08;;;;;;;9.25;5.28;;;;;;;;;;4917435;29;20032;-78